sensor_id;sensor_type;location;lat;lon;timestamp;temperature;humidity
23532;DHT22;11943;52.270;20.978;2023-05-20T00:00:43;13.50;99.90
23532;DHT22;11943;52.270;20.978;2023-05-20T00:03:09;13.50;99.90
23532;DHT22;11943;52.270;20.978;2023-05-20T00:05:34;13.40;99.90
23532;DHT22;11943;52.270;20.978;2023-05-20T00:08:00;13.40;99.90
23532;DHT22;11943;52.270;20.978;2023-05-20T00:10:28;13.40;99.90
23532;DHT22;11943;52.270;20.978;2023-05-20T00:12:54;13.40;99.90
23532;DHT22;11943;52.270;20.978;2023-05-20T00:15:20;13.40;99.90
23532;DHT22;11943;52.270;20.978;2023-05-20T00:17:45;13.40;99.90
23532;DHT22;11943;52.270;20.978;2023-05-20T00:20:11;13.40;99.90
23532;DHT22;11943;52.270;20.978;2023-05-20T00:22:37;13.30;99.90
23532;DHT22;11943;52.270;20.978;2023-05-20T00:25:02;13.30;99.90
23532;DHT22;11943;52.270;20.978;2023-05-20T00:27:28;13.30;99.90
23532;DHT22;11943;52.270;20.978;2023-05-20T00:29:54;13.30;99.90
23532;DHT22;11943;52.270;20.978;2023-05-20T00:32:19;13.30;99.90
23532;DHT22;11943;52.270;20.978;2023-05-20T00:34:55;13.30;99.90
23532;DHT22;11943;52.270;20.978;2023-05-20T00:37:21;13.20;99.90
23532;DHT22;11943;52.270;20.978;2023-05-20T00:39:47;13.20;99.90
23532;DHT22;11943;52.270;20.978;2023-05-20T00:42:19;13.20;99.90
23532;DHT22;11943;52.270;20.978;2023-05-20T00:44:45;13.20;99.90
23532;DHT22;11943;52.270;20.978;2023-05-20T00:47:11;13.20;99.90
23532;DHT22;11943;52.270;20.978;2023-05-20T00:49:36;13.20;99.90
23532;DHT22;11943;52.270;20.978;2023-05-20T00:52:02;13.20;99.90
23532;DHT22;11943;52.270;20.978;2023-05-20T00:54:28;13.10;99.90
23532;DHT22;11943;52.270;20.978;2023-05-20T00:56:54;13.10;99.90
23532;DHT22;11943;52.270;20.978;2023-05-20T00:59:20;13.10;99.90
23532;DHT22;11943;52.270;20.978;2023-05-20T01:01:46;13.10;99.90
23532;DHT22;11943;52.270;20.978;2023-05-20T01:04:11;13.10;99.90
23532;DHT22;11943;52.270;20.978;2023-05-20T01:06:37;13.10;99.90
23532;DHT22;11943;52.270;20.978;2023-05-20T01:09:03;13.10;99.90
23532;DHT22;11943;52.270;20.978;2023-05-20T01:11:33;13.10;99.90
23532;DHT22;11943;52.270;20.978;2023-05-20T01:14:05;13.00;99.90
23532;DHT22;11943;52.270;20.978;2023-05-20T01:16:32;13.00;99.90
23532;DHT22;11943;52.270;20.978;2023-05-20T01:18:59;13.00;99.90
23532;DHT22;11943;52.270;20.978;2023-05-20T01:21:26;13.00;99.90
23532;DHT22;11943;52.270;20.978;2023-05-20T01:23:54;13.00;99.90
23532;DHT22;11943;52.270;20.978;2023-05-20T01:26:20;13.00;99.90
23532;DHT22;11943;52.270;20.978;2023-05-20T01:28:46;13.00;99.90
23532;DHT22;11943;52.270;20.978;2023-05-20T01:31:17;13.00;99.90
23532;DHT22;11943;52.270;20.978;2023-05-20T01:33:44;12.90;99.90
23532;DHT22;11943;52.270;20.978;2023-05-20T01:36:11;13.00;99.90
23532;DHT22;11943;52.270;20.978;2023-05-20T01:38:38;12.90;99.90
23532;DHT22;11943;52.270;20.978;2023-05-20T01:41:04;12.90;99.90
23532;DHT22;11943;52.270;20.978;2023-05-20T01:43:31;12.90;99.90
23532;DHT22;11943;52.270;20.978;2023-05-20T01:45:56;12.80;99.90
23532;DHT22;11943;52.270;20.978;2023-05-20T01:48:22;12.80;99.90
23532;DHT22;11943;52.270;20.978;2023-05-20T01:50:48;12.80;99.90
23532;DHT22;11943;52.270;20.978;2023-05-20T01:53:13;12.80;99.90
23532;DHT22;11943;52.270;20.978;2023-05-20T01:55:39;12.80;99.90
23532;DHT22;11943;52.270;20.978;2023-05-20T01:58:05;12.80;99.90
23532;DHT22;11943;52.270;20.978;2023-05-20T02:00:34;12.80;99.90
23532;DHT22;11943;52.270;20.978;2023-05-20T02:03:00;12.70;99.90
23532;DHT22;11943;52.270;20.978;2023-05-20T02:05:28;12.80;99.90
23532;DHT22;11943;52.270;20.978;2023-05-20T02:07:53;12.70;99.90
23532;DHT22;11943;52.270;20.978;2023-05-20T02:10:19;12.70;99.90
23532;DHT22;11943;52.270;20.978;2023-05-20T02:12:45;12.70;99.90
23532;DHT22;11943;52.270;20.978;2023-05-20T02:15:12;12.70;99.90
23532;DHT22;11943;52.270;20.978;2023-05-20T02:17:37;12.60;99.90
23532;DHT22;11943;52.270;20.978;2023-05-20T02:20:05;12.60;99.90
23532;DHT22;11943;52.270;20.978;2023-05-20T02:22:32;12.60;99.90
23532;DHT22;11943;52.270;20.978;2023-05-20T02:24:57;12.50;99.90
23532;DHT22;11943;52.270;20.978;2023-05-20T02:27:23;12.60;99.90
23532;DHT22;11943;52.270;20.978;2023-05-20T02:29:48;12.50;99.90
23532;DHT22;11943;52.270;20.978;2023-05-20T02:32:14;12.60;99.90
23532;DHT22;11943;52.270;20.978;2023-05-20T02:34:39;12.60;99.90
23532;DHT22;11943;52.270;20.978;2023-05-20T02:37:05;12.60;99.90
23532;DHT22;11943;52.270;20.978;2023-05-20T02:39:31;12.60;99.90
23532;DHT22;11943;52.270;20.978;2023-05-20T02:41:57;12.60;99.90
23532;DHT22;11943;52.270;20.978;2023-05-20T02:44:22;12.60;99.90
23532;DHT22;11943;52.270;20.978;2023-05-20T02:46:48;12.60;99.90
23532;DHT22;11943;52.270;20.978;2023-05-20T02:49:14;12.60;99.90
23532;DHT22;11943;52.270;20.978;2023-05-20T02:51:39;12.60;99.90
23532;DHT22;11943;52.270;20.978;2023-05-20T02:54:05;12.60;99.90
23532;DHT22;11943;52.270;20.978;2023-05-20T02:56:31;12.60;99.90
23532;DHT22;11943;52.270;20.978;2023-05-20T02:58:56;12.60;99.90
23532;DHT22;11943;52.270;20.978;2023-05-20T03:01:22;12.70;99.90
23532;DHT22;11943;52.270;20.978;2023-05-20T03:03:48;12.70;99.90
23532;DHT22;11943;52.270;20.978;2023-05-20T03:06:14;12.70;99.90
23532;DHT22;11943;52.270;20.978;2023-05-20T03:08:39;12.70;99.90
23532;DHT22;11943;52.270;20.978;2023-05-20T03:11:07;12.80;99.90
23532;DHT22;11943;52.270;20.978;2023-05-20T03:13:32;12.80;99.90
23532;DHT22;11943;52.270;20.978;2023-05-20T03:15:59;12.70;99.90
23532;DHT22;11943;52.270;20.978;2023-05-20T03:18:25;12.70;99.90
23532;DHT22;11943;52.270;20.978;2023-05-20T03:20:52;12.80;99.90
23532;DHT22;11943;52.270;20.978;2023-05-20T03:23:18;12.80;99.90
23532;DHT22;11943;52.270;20.978;2023-05-20T03:25:44;12.80;99.90
23532;DHT22;11943;52.270;20.978;2023-05-20T03:28:10;12.90;99.90
23532;DHT22;11943;52.270;20.978;2023-05-20T03:30:36;12.90;99.90
23532;DHT22;11943;52.270;20.978;2023-05-20T03:33:02;12.90;99.90
23532;DHT22;11943;52.270;20.978;2023-05-20T03:35:27;12.90;99.90
23532;DHT22;11943;52.270;20.978;2023-05-20T03:37:54;12.90;99.90
23532;DHT22;11943;52.270;20.978;2023-05-20T03:40:20;12.90;99.90
23532;DHT22;11943;52.270;20.978;2023-05-20T03:42:46;12.90;99.90
23532;DHT22;11943;52.270;20.978;2023-05-20T03:45:12;12.90;99.90
23532;DHT22;11943;52.270;20.978;2023-05-20T03:47:37;12.90;99.90
23532;DHT22;11943;52.270;20.978;2023-05-20T03:50:03;13.00;99.90
23532;DHT22;11943;52.270;20.978;2023-05-20T03:52:29;12.90;99.90
23532;DHT22;11943;52.270;20.978;2023-05-20T03:54:55;13.00;99.90
23532;DHT22;11943;52.270;20.978;2023-05-20T03:57:21;13.00;99.90
23532;DHT22;11943;52.270;20.978;2023-05-20T03:59:47;13.10;99.90
23532;DHT22;11943;52.270;20.978;2023-05-20T04:02:12;13.10;99.90
23532;DHT22;11943;52.270;20.978;2023-05-20T04:04:38;13.10;99.90
23532;DHT22;11943;52.270;20.978;2023-05-20T04:07:04;13.10;99.90
23532;DHT22;11943;52.270;20.978;2023-05-20T04:09:29;13.20;99.90
23532;DHT22;11943;52.270;20.978;2023-05-20T04:11:55;13.20;99.90
23532;DHT22;11943;52.270;20.978;2023-05-20T04:14:21;13.20;99.90
23532;DHT22;11943;52.270;20.978;2023-05-20T04:16:47;13.30;99.90
23532;DHT22;11943;52.270;20.978;2023-05-20T04:19:14;13.30;99.90
23532;DHT22;11943;52.270;20.978;2023-05-20T04:21:41;13.40;99.90
23532;DHT22;11943;52.270;20.978;2023-05-20T04:24:07;13.50;99.90
23532;DHT22;11943;52.270;20.978;2023-05-20T04:26:33;13.60;99.90
23532;DHT22;11943;52.270;20.978;2023-05-20T04:29:00;13.70;99.90
23532;DHT22;11943;52.270;20.978;2023-05-20T04:31:29;13.70;99.90
23532;DHT22;11943;52.270;20.978;2023-05-20T04:33:55;13.80;99.90
23532;DHT22;11943;52.270;20.978;2023-05-20T04:36:21;13.90;99.90
23532;DHT22;11943;52.270;20.978;2023-05-20T04:38:53;13.90;99.90
23532;DHT22;11943;52.270;20.978;2023-05-20T04:41:19;14.00;99.90
23532;DHT22;11943;52.270;20.978;2023-05-20T04:43:44;14.10;99.90
23532;DHT22;11943;52.270;20.978;2023-05-20T04:46:10;14.20;99.90
23532;DHT22;11943;52.270;20.978;2023-05-20T04:48:36;14.30;99.90
23532;DHT22;11943;52.270;20.978;2023-05-20T04:51:01;14.30;99.90
23532;DHT22;11943;52.270;20.978;2023-05-20T04:53:27;14.40;99.90
23532;DHT22;11943;52.270;20.978;2023-05-20T04:55:55;14.50;99.90
23532;DHT22;11943;52.270;20.978;2023-05-20T04:58:22;14.60;99.90
23532;DHT22;11943;52.270;20.978;2023-05-20T05:00:49;14.60;99.90
23532;DHT22;11943;52.270;20.978;2023-05-20T05:03:15;14.80;99.90
23532;DHT22;11943;52.270;20.978;2023-05-20T05:05:42;15.10;99.90
23532;DHT22;11943;52.270;20.978;2023-05-20T05:08:08;15.20;99.90
23532;DHT22;11943;52.270;20.978;2023-05-20T05:10:35;15.20;99.90
23532;DHT22;11943;52.270;20.978;2023-05-20T05:13:01;15.40;99.90
23532;DHT22;11943;52.270;20.978;2023-05-20T05:15:27;15.60;99.90
23532;DHT22;11943;52.270;20.978;2023-05-20T05:17:53;15.50;99.90
23532;DHT22;11943;52.270;20.978;2023-05-20T05:20:19;15.70;99.90
23532;DHT22;11943;52.270;20.978;2023-05-20T05:22:45;16.00;99.90
23532;DHT22;11943;52.270;20.978;2023-05-20T05:25:11;16.20;99.90
23532;DHT22;11943;52.270;20.978;2023-05-20T05:27:37;16.30;99.90
23532;DHT22;11943;52.270;20.978;2023-05-20T05:30:04;16.90;99.90
23532;DHT22;11943;52.270;20.978;2023-05-20T05:32:30;17.20;99.90
23532;DHT22;11943;52.270;20.978;2023-05-20T05:34:56;17.50;99.90
23532;DHT22;11943;52.270;20.978;2023-05-20T05:37:22;17.80;99.90
23532;DHT22;11943;52.270;20.978;2023-05-20T05:39:47;18.30;99.90
23532;DHT22;11943;52.270;20.978;2023-05-20T05:42:13;18.60;99.90
23532;DHT22;11943;52.270;20.978;2023-05-20T05:44:39;18.80;99.90
23532;DHT22;11943;52.270;20.978;2023-05-20T05:47:04;18.80;99.90
23532;DHT22;11943;52.270;20.978;2023-05-20T05:49:31;18.50;99.90
23532;DHT22;11943;52.270;20.978;2023-05-20T05:51:57;18.50;99.90
23532;DHT22;11943;52.270;20.978;2023-05-20T05:54:23;18.50;99.90
23532;DHT22;11943;52.270;20.978;2023-05-20T05:56:51;18.90;99.90
23532;DHT22;11943;52.270;20.978;2023-05-20T05:59:16;18.90;99.90
23532;DHT22;11943;52.270;20.978;2023-05-20T06:01:42;18.80;99.90
23532;DHT22;11943;52.270;20.978;2023-05-20T06:04:08;18.60;99.90
23532;DHT22;11943;52.270;20.978;2023-05-20T06:06:33;18.70;99.90
23532;DHT22;11943;52.270;20.978;2023-05-20T06:08:59;18.20;99.90
23532;DHT22;11943;52.270;20.978;2023-05-20T06:11:24;17.80;99.90
23532;DHT22;11943;52.270;20.978;2023-05-20T06:13:51;17.90;99.90
23532;DHT22;11943;52.270;20.978;2023-05-20T06:16:16;18.00;99.90
23532;DHT22;11943;52.270;20.978;2023-05-20T06:18:44;18.20;99.90
23532;DHT22;11943;52.270;20.978;2023-05-20T06:21:10;18.40;99.90
23532;DHT22;11943;52.270;20.978;2023-05-20T06:23:36;18.40;99.90
23532;DHT22;11943;52.270;20.978;2023-05-20T06:26:01;18.30;99.90
23532;DHT22;11943;52.270;20.978;2023-05-20T06:28:28;18.50;99.90
23532;DHT22;11943;52.270;20.978;2023-05-20T06:30:54;18.70;99.90
23532;DHT22;11943;52.270;20.978;2023-05-20T06:33:22;18.70;99.90
23532;DHT22;11943;52.270;20.978;2023-05-20T06:35:53;18.70;99.90
23532;DHT22;11943;52.270;20.978;2023-05-20T06:38:19;18.60;99.90
23532;DHT22;11943;52.270;20.978;2023-05-20T06:40:45;19.10;99.90
23532;DHT22;11943;52.270;20.978;2023-05-20T06:43:12;18.90;99.90
23532;DHT22;11943;52.270;20.978;2023-05-20T06:45:37;19.00;99.90
23532;DHT22;11943;52.270;20.978;2023-05-20T06:48:03;19.10;99.90
23532;DHT22;11943;52.270;20.978;2023-05-20T06:50:29;19.00;99.90
23532;DHT22;11943;52.270;20.978;2023-05-20T06:52:54;19.30;99.90
23532;DHT22;11943;52.270;20.978;2023-05-20T06:55:20;19.40;99.90
23532;DHT22;11943;52.270;20.978;2023-05-20T06:57:46;19.50;99.90
23532;DHT22;11943;52.270;20.978;2023-05-20T07:00:12;19.80;99.90
23532;DHT22;11943;52.270;20.978;2023-05-20T07:02:41;19.90;99.90
23532;DHT22;11943;52.270;20.978;2023-05-20T07:05:07;20.10;99.00
23532;DHT22;11943;52.270;20.978;2023-05-20T07:07:33;20.20;98.10
23532;DHT22;11943;52.270;20.978;2023-05-20T07:09:58;20.50;99.10
23532;DHT22;11943;52.270;20.978;2023-05-20T07:12:24;20.40;96.50
23532;DHT22;11943;52.270;20.978;2023-05-20T07:14:50;20.60;98.30
23532;DHT22;11943;52.270;20.978;2023-05-20T07:17:15;20.50;95.70
23532;DHT22;11943;52.270;20.978;2023-05-20T07:19:41;20.50;95.90
23532;DHT22;11943;52.270;20.978;2023-05-20T07:22:07;20.40;96.40
23532;DHT22;11943;52.270;20.978;2023-05-20T07:24:33;20.40;96.80
23532;DHT22;11943;52.270;20.978;2023-05-20T07:26:59;20.20;96.80
23532;DHT22;11943;52.270;20.978;2023-05-20T07:29:25;20.30;98.00
23532;DHT22;11943;52.270;20.978;2023-05-20T07:31:50;20.40;97.00
23532;DHT22;11943;52.270;20.978;2023-05-20T07:34:16;20.50;97.00
23532;DHT22;11943;52.270;20.978;2023-05-20T07:36:42;20.60;95.30
23532;DHT22;11943;52.270;20.978;2023-05-20T07:39:08;20.70;95.40
23532;DHT22;11943;52.270;20.978;2023-05-20T07:41:36;20.80;94.80
23532;DHT22;11943;52.270;20.978;2023-05-20T07:44:03;20.60;94.80
23532;DHT22;11943;52.270;20.978;2023-05-20T07:46:29;20.60;96.50
23532;DHT22;11943;52.270;20.978;2023-05-20T07:48:55;20.90;97.80
23532;DHT22;11943;52.270;20.978;2023-05-20T07:51:20;21.10;96.70
23532;DHT22;11943;52.270;20.978;2023-05-20T07:53:46;21.40;95.20
23532;DHT22;11943;52.270;20.978;2023-05-20T07:56:12;21.50;95.10
23532;DHT22;11943;52.270;20.978;2023-05-20T07:58:40;21.80;95.50
23532;DHT22;11943;52.270;20.978;2023-05-20T08:01:06;22.00;91.70
23532;DHT22;11943;52.270;20.978;2023-05-20T08:03:34;22.10;88.80
23532;DHT22;11943;52.270;20.978;2023-05-20T08:05:59;21.60;89.10
23532;DHT22;11943;52.270;20.978;2023-05-20T08:08:25;21.50;91.40
23532;DHT22;11943;52.270;20.978;2023-05-20T08:10:53;21.70;93.60
23532;DHT22;11943;52.270;20.978;2023-05-20T08:13:18;21.80;91.40
23532;DHT22;11943;52.270;20.978;2023-05-20T08:15:44;22.10;91.30
23532;DHT22;11943;52.270;20.978;2023-05-20T08:18:10;22.40;89.70
23532;DHT22;11943;52.270;20.978;2023-05-20T08:20:36;22.50;88.60
23532;DHT22;11943;52.270;20.978;2023-05-20T08:23:01;22.20;84.80
23532;DHT22;11943;52.270;20.978;2023-05-20T08:25:27;22.00;84.50
23532;DHT22;11943;52.270;20.978;2023-05-20T08:27:54;22.20;86.50
23532;DHT22;11943;52.270;20.978;2023-05-20T08:30:20;22.20;88.50
23532;DHT22;11943;52.270;20.978;2023-05-20T08:32:45;22.40;90.70
23532;DHT22;11943;52.270;20.978;2023-05-20T08:35:12;22.60;84.00
23532;DHT22;11943;52.270;20.978;2023-05-20T08:37:38;22.20;82.50
23532;DHT22;11943;52.270;20.978;2023-05-20T08:40:04;22.60;85.00
23532;DHT22;11943;52.270;20.978;2023-05-20T08:42:30;22.80;83.20
23532;DHT22;11943;52.270;20.978;2023-05-20T08:44:57;23.00;83.20
23532;DHT22;11943;52.270;20.978;2023-05-20T08:47:25;23.30;80.70
23532;DHT22;11943;52.270;20.978;2023-05-20T08:49:51;22.90;80.20
23532;DHT22;11943;52.270;20.978;2023-05-20T08:52:21;23.30;83.00
23532;DHT22;11943;52.270;20.978;2023-05-20T08:54:48;23.60;78.40
23532;DHT22;11943;52.270;20.978;2023-05-20T08:57:14;23.40;77.70
23532;DHT22;11943;52.270;20.978;2023-05-20T08:59:44;23.40;79.20
23532;DHT22;11943;52.270;20.978;2023-05-20T09:02:12;23.50;82.00
23532;DHT22;11943;52.270;20.978;2023-05-20T09:04:38;23.50;80.10
23532;DHT22;11943;52.270;20.978;2023-05-20T09:07:04;23.10;79.00
23532;DHT22;11943;52.270;20.978;2023-05-20T09:09:32;22.90;79.40
23532;DHT22;11943;52.270;20.978;2023-05-20T09:11:59;22.80;82.20
23532;DHT22;11943;52.270;20.978;2023-05-20T09:14:25;22.70;81.80
23532;DHT22;11943;52.270;20.978;2023-05-20T09:16:52;22.90;85.10
23532;DHT22;11943;52.270;20.978;2023-05-20T09:19:21;23.00;85.90
23532;DHT22;11943;52.270;20.978;2023-05-20T09:21:46;23.00;84.10
23532;DHT22;11943;52.270;20.978;2023-05-20T09:24:12;23.10;84.50
23532;DHT22;11943;52.270;20.978;2023-05-20T09:26:38;23.20;83.60
23532;DHT22;11943;52.270;20.978;2023-05-20T09:29:03;23.40;79.00
23532;DHT22;11943;52.270;20.978;2023-05-20T09:31:33;23.20;79.00
23532;DHT22;11943;52.270;20.978;2023-05-20T09:34:02;23.30;79.90
23532;DHT22;11943;52.270;20.978;2023-05-20T09:36:28;23.70;78.80
23532;DHT22;11943;52.270;20.978;2023-05-20T09:38:59;24.00;79.50
23532;DHT22;11943;52.270;20.978;2023-05-20T09:41:38;24.30;78.30
23532;DHT22;11943;52.270;20.978;2023-05-20T09:44:09;24.00;72.50
23532;DHT22;11943;52.270;20.978;2023-05-20T09:46:36;23.80;73.00
23532;DHT22;11943;52.270;20.978;2023-05-20T09:49:02;23.80;75.30
23532;DHT22;11943;52.270;20.978;2023-05-20T09:51:28;23.70;73.40
23532;DHT22;11943;52.270;20.978;2023-05-20T09:53:57;23.60;72.60
23532;DHT22;11943;52.270;20.978;2023-05-20T09:56:23;23.70;74.60
23532;DHT22;11943;52.270;20.978;2023-05-20T09:58:50;23.90;76.60
23532;DHT22;11943;52.270;20.978;2023-05-20T10:01:22;23.90;77.00
23532;DHT22;11943;52.270;20.978;2023-05-20T10:03:48;23.90;75.20
23532;DHT22;11943;52.270;20.978;2023-05-20T10:06:17;24.00;73.60
23532;DHT22;11943;52.270;20.978;2023-05-20T10:17:33;23.80;73.40
23532;DHT22;11943;52.270;20.978;2023-05-20T10:20:00;24.10;74.20
23532;DHT22;11943;52.270;20.978;2023-05-20T10:22:28;24.10;73.50
23532;DHT22;11943;52.270;20.978;2023-05-20T10:24:58;24.10;71.30
23532;DHT22;11943;52.270;20.978;2023-05-20T10:27:24;24.00;72.20
23532;DHT22;11943;52.270;20.978;2023-05-20T10:29:54;24.40;72.00
23532;DHT22;11943;52.270;20.978;2023-05-20T10:32:28;24.30;70.80
23532;DHT22;11943;52.270;20.978;2023-05-20T10:35:01;24.30;71.10
23532;DHT22;11943;52.270;20.978;2023-05-20T10:37:31;24.60;71.10
23532;DHT22;11943;52.270;20.978;2023-05-20T10:40:13;24.80;72.80
23532;DHT22;11943;52.270;20.978;2023-05-20T10:42:40;24.70;69.70
23532;DHT22;11943;52.270;20.978;2023-05-20T10:45:07;24.60;69.40
23532;DHT22;11943;52.270;20.978;2023-05-20T10:47:33;24.60;69.80
23532;DHT22;11943;52.270;20.978;2023-05-20T10:49:58;24.70;68.30
23532;DHT22;11943;52.270;20.978;2023-05-20T10:52:26;24.90;69.30
23532;DHT22;11943;52.270;20.978;2023-05-20T10:54:56;25.10;68.70
23532;DHT22;11943;52.270;20.978;2023-05-20T10:57:24;25.00;70.50
23532;DHT22;11943;52.270;20.978;2023-05-20T10:59:50;24.80;70.10
23532;DHT22;11943;52.270;20.978;2023-05-20T11:02:17;25.00;66.70
23532;DHT22;11943;52.270;20.978;2023-05-20T11:04:43;25.10;67.20
23532;DHT22;11943;52.270;20.978;2023-05-20T11:07:09;25.00;68.50
23532;DHT22;11943;52.270;20.978;2023-05-20T11:09:35;24.80;68.40
23532;DHT22;11943;52.270;20.978;2023-05-20T11:12:01;24.50;68.40
23532;DHT22;11943;52.270;20.978;2023-05-20T11:14:28;24.70;69.40
23532;DHT22;11943;52.270;20.978;2023-05-20T11:16:59;24.80;67.50
23532;DHT22;11943;52.270;20.978;2023-05-20T11:19:26;25.10;67.70
23532;DHT22;11943;52.270;20.978;2023-05-20T11:21:52;25.20;67.10
23532;DHT22;11943;52.270;20.978;2023-05-20T11:24:25;25.60;68.10
23532;DHT22;11943;52.270;20.978;2023-05-20T11:26:52;25.70;65.60
23532;DHT22;11943;52.270;20.978;2023-05-20T11:29:18;25.50;67.30
23532;DHT22;11943;52.270;20.978;2023-05-20T11:31:44;25.30;64.10
23532;DHT22;11943;52.270;20.978;2023-05-20T11:34:11;25.50;65.20
23532;DHT22;11943;52.270;20.978;2023-05-20T11:36:41;25.10;63.70
23532;DHT22;11943;52.270;20.978;2023-05-20T11:39:09;25.20;65.30
23532;DHT22;11943;52.270;20.978;2023-05-20T11:41:35;25.00;64.80
23532;DHT22;11943;52.270;20.978;2023-05-20T11:44:01;25.00;64.40
23532;DHT22;11943;52.270;20.978;2023-05-20T11:46:27;24.90;65.00
23532;DHT22;11943;52.270;20.978;2023-05-20T11:48:57;25.20;64.50
23532;DHT22;11943;52.270;20.978;2023-05-20T11:51:26;25.20;63.80
23532;DHT22;11943;52.270;20.978;2023-05-20T11:53:52;25.00;63.40
23532;DHT22;11943;52.270;20.978;2023-05-20T11:56:19;25.10;63.50
23532;DHT22;11943;52.270;20.978;2023-05-20T11:58:45;25.00;62.90
23532;DHT22;11943;52.270;20.978;2023-05-20T12:01:11;25.20;62.90
23532;DHT22;11943;52.270;20.978;2023-05-20T12:03:36;25.30;62.00
23532;DHT22;11943;52.270;20.978;2023-05-20T12:06:02;25.50;62.30
23532;DHT22;11943;52.270;20.978;2023-05-20T12:08:28;25.50;61.90
23532;DHT22;11943;52.270;20.978;2023-05-20T12:10:54;25.30;62.00
23532;DHT22;11943;52.270;20.978;2023-05-20T12:13:20;25.30;62.40
23532;DHT22;11943;52.270;20.978;2023-05-20T12:15:47;25.40;60.80
23532;DHT22;11943;52.270;20.978;2023-05-20T12:18:13;25.40;61.50
23532;DHT22;11943;52.270;20.978;2023-05-20T12:20:39;25.60;62.30
23532;DHT22;11943;52.270;20.978;2023-05-20T12:23:04;25.10;60.40
23532;DHT22;11943;52.270;20.978;2023-05-20T12:25:30;24.80;62.20
23532;DHT22;11943;52.270;20.978;2023-05-20T12:27:56;24.60;65.10
23532;DHT22;11943;52.270;20.978;2023-05-20T12:30:22;24.70;65.20
23532;DHT22;11943;52.270;20.978;2023-05-20T12:32:49;24.80;64.70
23532;DHT22;11943;52.270;20.978;2023-05-20T12:35:16;24.90;63.70
23532;DHT22;11943;52.270;20.978;2023-05-20T12:37:42;25.00;66.30
23532;DHT22;11943;52.270;20.978;2023-05-20T12:40:10;24.90;64.60
23532;DHT22;11943;52.270;20.978;2023-05-20T12:42:39;24.90;66.00
23532;DHT22;11943;52.270;20.978;2023-05-20T12:45:06;24.70;65.70
23532;DHT22;11943;52.270;20.978;2023-05-20T12:47:32;25.00;65.50
23532;DHT22;11943;52.270;20.978;2023-05-20T12:49:58;25.20;61.60
23532;DHT22;11943;52.270;20.978;2023-05-20T12:52:25;25.40;60.90
23532;DHT22;11943;52.270;20.978;2023-05-20T12:54:53;25.50;61.70
23532;DHT22;11943;52.270;20.978;2023-05-20T12:57:18;25.60;60.30
23532;DHT22;11943;52.270;20.978;2023-05-20T12:59:44;25.30;60.30
23532;DHT22;11943;52.270;20.978;2023-05-20T13:02:10;25.60;63.10
23532;DHT22;11943;52.270;20.978;2023-05-20T13:04:36;25.80;61.00
23532;DHT22;11943;52.270;20.978;2023-05-20T13:07:02;25.90;60.60
23532;DHT22;11943;52.270;20.978;2023-05-20T13:09:28;25.60;60.60
23532;DHT22;11943;52.270;20.978;2023-05-20T13:11:54;25.20;60.60
23532;DHT22;11943;52.270;20.978;2023-05-20T13:14:19;24.60;62.30
23532;DHT22;11943;52.270;20.978;2023-05-20T13:16:46;24.30;66.00
23532;DHT22;11943;52.270;20.978;2023-05-20T13:19:12;24.20;65.70
23532;DHT22;11943;52.270;20.978;2023-05-20T13:21:38;24.10;67.30
23532;DHT22;11943;52.270;20.978;2023-05-20T13:24:04;24.10;67.00
23532;DHT22;11943;52.270;20.978;2023-05-20T13:26:30;24.30;69.20
23532;DHT22;11943;52.270;20.978;2023-05-20T13:28:55;24.40;68.40
23532;DHT22;11943;52.270;20.978;2023-05-20T13:31:21;24.40;69.30
23532;DHT22;11943;52.270;20.978;2023-05-20T13:33:47;24.40;65.70
23532;DHT22;11943;52.270;20.978;2023-05-20T13:36:12;24.20;65.60
23532;DHT22;11943;52.270;20.978;2023-05-20T13:38:38;24.40;65.20
23532;DHT22;11943;52.270;20.978;2023-05-20T13:41:03;24.20;66.90
23532;DHT22;11943;52.270;20.978;2023-05-20T13:43:30;24.20;68.10
23532;DHT22;11943;52.270;20.978;2023-05-20T13:45:56;24.30;67.30
23532;DHT22;11943;52.270;20.978;2023-05-20T13:48:22;24.20;67.20
23532;DHT22;11943;52.270;20.978;2023-05-20T13:50:48;24.30;67.80
23532;DHT22;11943;52.270;20.978;2023-05-20T13:53:14;24.10;67.50
23532;DHT22;11943;52.270;20.978;2023-05-20T13:55:40;24.00;66.90
23532;DHT22;11943;52.270;20.978;2023-05-20T13:58:05;23.90;68.50
23532;DHT22;11943;52.270;20.978;2023-05-20T14:00:36;23.80;71.40
23532;DHT22;11943;52.270;20.978;2023-05-20T14:03:02;23.70;69.90
23532;DHT22;11943;52.270;20.978;2023-05-20T14:05:33;23.60;71.20
23532;DHT22;11943;52.270;20.978;2023-05-20T14:08:00;23.60;73.00
23532;DHT22;11943;52.270;20.978;2023-05-20T14:10:25;23.60;73.10
23532;DHT22;11943;52.270;20.978;2023-05-20T14:12:52;23.50;72.70
23532;DHT22;11943;52.270;20.978;2023-05-20T14:15:18;23.60;72.80
23532;DHT22;11943;52.270;20.978;2023-05-20T14:17:44;23.60;71.80
23532;DHT22;11943;52.270;20.978;2023-05-20T14:20:10;23.70;70.70
23532;DHT22;11943;52.270;20.978;2023-05-20T14:22:36;23.60;72.30
23532;DHT22;11943;52.270;20.978;2023-05-20T14:25:02;23.60;71.40
23532;DHT22;11943;52.270;20.978;2023-05-20T14:27:28;23.70;72.30
23532;DHT22;11943;52.270;20.978;2023-05-20T14:29:54;23.70;72.80
23532;DHT22;11943;52.270;20.978;2023-05-20T14:32:20;23.80;73.20
23532;DHT22;11943;52.270;20.978;2023-05-20T14:34:46;23.90;72.00
23532;DHT22;11943;52.270;20.978;2023-05-20T14:37:11;24.00;70.40
23532;DHT22;11943;52.270;20.978;2023-05-20T14:39:38;24.10;70.70
23532;DHT22;11943;52.270;20.978;2023-05-20T14:42:04;24.20;69.70
23532;DHT22;11943;52.270;20.978;2023-05-20T14:44:29;24.30;68.20
23532;DHT22;11943;52.270;20.978;2023-05-20T14:46:55;24.60;68.30
23532;DHT22;11943;52.270;20.978;2023-05-20T14:49:21;24.60;67.40
23532;DHT22;11943;52.270;20.978;2023-05-20T14:51:47;24.90;65.40
23532;DHT22;11943;52.270;20.978;2023-05-20T14:54:13;25.20;65.80
23532;DHT22;11943;52.270;20.978;2023-05-20T14:56:39;25.10;64.40
23532;DHT22;11943;52.270;20.978;2023-05-20T14:59:05;24.90;64.40
23532;DHT22;11943;52.270;20.978;2023-05-20T15:01:32;24.70;63.80
23532;DHT22;11943;52.270;20.978;2023-05-20T15:03:58;24.50;64.10
23532;DHT22;11943;52.270;20.978;2023-05-20T15:06:24;24.40;65.70
23532;DHT22;11943;52.270;20.978;2023-05-20T15:08:49;24.10;67.10
23532;DHT22;11943;52.270;20.978;2023-05-20T15:11:15;23.90;69.80
23532;DHT22;11943;52.270;20.978;2023-05-20T15:13:40;23.90;71.10
23532;DHT22;11943;52.270;20.978;2023-05-20T15:16:06;23.90;70.40
23532;DHT22;11943;52.270;20.978;2023-05-20T15:18:32;23.70;71.70